createdAt,value
2023-01-11T00:01:59.246Z,2.710266
2023-01-11T00:05:24.468Z,2.710266
2023-01-11T00:08:49.744Z,2.720337
2023-01-11T00:12:15.074Z,2.710266
2023-01-11T00:15:40.454Z,2.589417
2023-01-11T00:19:05.637Z,2.609558
2023-01-11T00:22:30.912Z,2.599487
2023-01-11T00:25:56.190Z,2.6297
2023-01-11T00:29:21.480Z,2.6297
2023-01-11T00:32:46.725Z,2.659912
2023-01-11T00:36:11.972Z,2.659912
2023-01-11T00:39:37.259Z,2.599487
2023-01-11T00:43:02.606Z,2.569275
2023-01-11T00:46:28.034Z,2.599487
2023-01-11T00:49:53.190Z,2.559204
2023-01-11T00:53:18.486Z,2.569275
2023-01-11T00:56:43.756Z,2.569275
2023-01-11T01:00:09.112Z,2.488708
2023-01-11T01:03:34.405Z,2.478638
2023-01-11T01:06:59.673Z,2.488708
2023-01-11T01:10:24.940Z,2.458496
2023-01-11T01:13:50.223Z,2.418213
2023-01-11T01:17:15.447Z,2.408142
2023-01-11T01:20:40.808Z,2.37793
2023-01-11T01:24:06.076Z,2.337646
2023-01-11T01:27:31.366Z,2.478638
2023-01-11T01:30:56.657Z,2.458496
2023-01-11T01:34:21.977Z,2.488708
2023-01-11T01:37:47.281Z,2.539062
2023-01-11T01:41:12.515Z,2.559204
2023-01-11T01:44:37.788Z,2.690125
2023-01-11T01:48:03.031Z,2.891541
2023-01-11T01:51:28.379Z,2.921753
2023-01-11T01:54:53.761Z,2.891541
2023-01-11T01:58:19.042Z,2.972107
2023-01-11T02:01:44.330Z,2.931824
2023-01-11T02:05:09.584Z,2.972107
2023-01-11T02:08:34.850Z,2.992249
2023-01-11T02:12:00.128Z,3.022461
2023-01-11T02:15:25.392Z,3.082886
2023-01-11T02:18:50.698Z,3.13324
2023-01-11T02:22:16.012Z,3.173523
2023-01-11T02:25:41.307Z,3.203735
2023-01-11T02:29:06.624Z,3.26416
2023-01-11T02:32:31.883Z,3.173523
2023-01-11T02:35:57.182Z,3.143311
2023-01-11T02:39:22.464Z,3.13324
2023-01-11T02:42:47.780Z,3.052673
2023-01-11T02:46:13.117Z,2.972107
2023-01-11T02:49:38.349Z,2.921753
2023-01-11T02:53:03.613Z,2.921753
2023-01-11T02:56:28.891Z,2.962036
2023-01-11T02:59:54.191Z,2.931824
2023-01-11T03:03:19.486Z,2.921753
2023-01-11T03:06:44.735Z,2.871399
2023-01-11T03:10:09.999Z,2.810974
2023-01-11T03:13:35.283Z,2.810974
2023-01-11T03:17:00.548Z,2.921753
2023-01-11T03:20:25.882Z,2.810974
2023-01-11T03:23:51.123Z,2.841187
2023-01-11T03:27:16.396Z,2.790833
2023-01-11T03:30:41.669Z,2.810974
2023-01-11T03:34:06.921Z,2.790833
2023-01-11T03:37:32.231Z,2.841187
2023-01-11T03:40:57.483Z,2.810974
2023-01-11T03:44:22.819Z,2.901611
2023-01-11T03:47:48.088Z,2.921753
2023-01-11T03:51:13.335Z,2.921753
2023-01-11T03:54:38.611Z,3.002319
2023-01-11T03:58:03.867Z,3.052673
2023-01-11T04:01:29.147Z,3.052673
2023-01-11T04:04:54.413Z,3.13324
2023-01-11T04:08:19.690Z,3.103027
2023-01-11T04:11:45.005Z,3.173523
2023-01-11T04:15:10.249Z,3.173523
2023-01-11T04:18:35.508Z,3.244019
2023-01-11T04:22:00.745Z,3.334656
2023-01-11T04:25:26.044Z,3.334656
2023-01-11T04:28:54.085Z,3.294373
2023-01-11T04:32:16.588Z,3.324585
2023-01-11T04:35:42.030Z,3.465576
2023-01-11T04:39:07.289Z,3.445435
2023-01-11T04:42:32.554Z,3.445435
2023-01-11T04:45:57.888Z,3.475647
2023-01-11T04:49:23.063Z,3.475647
2023-01-11T04:52:48.302Z,3.495789
2023-01-11T04:56:13.560Z,3.475647
2023-01-11T04:59:38.817Z,3.495789
2023-01-11T05:03:04.050Z,3.546143
2023-01-11T05:06:29.323Z,3.596497
2023-01-11T05:09:54.520Z,3.606567
2023-01-11T05:13:19.777Z,3.606567
2023-01-11T05:16:45.092Z,3.656921
2023-01-11T05:20:10.269Z,3.677063
2023-01-11T05:23:35.490Z,3.576355
2023-01-11T05:27:00.749Z,3.596497
2023-01-11T05:30:25.996Z,3.656921
2023-01-11T05:33:51.280Z,3.717346
2023-01-11T05:37:16.512Z,3.687134
2023-01-11T05:40:41.886Z,3.687134
2023-01-11T05:44:07.135Z,3.646851
2023-01-11T05:47:32.427Z,3.697205
2023-01-11T05:50:59.187Z,3.717346
2023-01-11T05:54:23.214Z,3.838196
2023-01-11T05:57:48.553Z,3.787842
2023-01-11T06:01:13.871Z,3.858337
2023-01-11T06:04:39.195Z,3.928833
2023-01-11T06:08:04.448Z,3.969116
2023-01-11T06:11:29.767Z,4.039612
2023-01-11T06:14:54.984Z,4.039612
2023-01-11T06:18:20.376Z,4.079895
2023-01-11T06:21:45.597Z,4.110107
2023-01-11T06:25:10.873Z,4.160461
2023-01-11T06:28:36.193Z,4.14032
2023-01-11T06:32:01.460Z,4.27124
2023-01-11T06:35:26.729Z,4.291382
2023-01-11T06:38:52.003Z,4.230957
2023-01-11T06:42:17.301Z,4.291382
2023-01-11T06:45:42.617Z,4.331665
2023-01-11T06:49:07.872Z,4.371948
2023-01-11T06:52:33.104Z,4.442444
2023-01-11T06:55:58.378Z,4.52301
2023-01-11T06:59:23.633Z,4.583435
2023-01-11T07:02:48.932Z,4.583435
2023-01-11T07:06:14.148Z,4.633789
2023-01-11T07:09:39.477Z,4.653931
2023-01-11T07:13:04.779Z,4.653931
2023-01-11T07:16:30.099Z,4.583435
2023-01-11T07:19:55.663Z,4.553223
2023-01-11T07:23:20.986Z,4.633789
2023-01-11T07:26:46.291Z,4.674072
2023-01-11T07:30:11.595Z,4.664001
2023-01-11T07:33:36.951Z,4.623718
2023-01-11T07:37:02.368Z,4.653931
2023-01-11T07:40:27.609Z,4.633789
2023-01-11T07:43:52.954Z,4.653931
2023-01-11T07:47:18.270Z,4.694214
2023-01-11T07:50:45.204Z,4.704285
2023-01-11T07:54:08.919Z,4.704285
2023-01-11T07:57:34.216Z,4.754639
2023-01-11T08:00:59.529Z,4.704285
2023-01-11T08:04:24.845Z,4.804993
2023-01-11T08:07:50.331Z,4.804993
2023-01-11T08:11:15.666Z,4.875488
2023-01-11T08:14:40.876Z,4.885559
2023-01-11T08:18:06.169Z,5.207825
2023-01-11T08:21:31.428Z,5.53009
2023-01-11T08:24:56.710Z,5.78186
2023-01-11T08:28:21.998Z,5.912781
2023-01-11T08:31:47.237Z,5.993347
2023-01-11T08:35:12.503Z,5.912781
2023-01-11T08:38:37.727Z,5.912781
2023-01-11T08:42:03.016Z,5.90271
2023-01-11T08:45:28.256Z,5.973206
2023-01-11T08:48:53.485Z,5.942993
2023-01-11T08:52:18.726Z,5.993347
2023-01-11T08:55:43.976Z,5.892639
2023-01-11T08:59:09.578Z,5.942993
2023-01-11T09:02:35.070Z,5.761719
2023-01-11T09:06:00.300Z,5.610657
2023-01-11T09:09:25.564Z,5.509949
2023-01-11T09:12:50.846Z,5.509949
2023-01-11T09:16:16.193Z,5.39917
2023-01-11T09:19:41.415Z,5.459595
2023-01-11T09:23:06.646Z,5.479736
2023-01-11T09:26:31.925Z,5.53009
2023-01-11T09:29:57.181Z,5.489807
2023-01-11T09:33:22.448Z,5.489807
2023-01-11T09:36:47.740Z,5.509949
2023-01-11T09:40:13.852Z,5.600586
2023-01-11T09:43:38.260Z,5.580444
2023-01-11T09:47:03.494Z,5.65094
2023-01-11T09:50:28.775Z,5.671082
2023-01-11T09:53:54.073Z,5.761719
2023-01-11T09:57:19.351Z,5.741577
2023-01-11T10:00:44.695Z,5.78186
2023-01-11T10:04:09.835Z,5.852356
2023-01-11T10:07:35.101Z,5.862427
2023-01-11T10:18:21.727Z,5.912781
2023-01-11T10:18:24.247Z,5.963135
2023-01-11T10:21:16.161Z,5.963135
2023-01-11T10:24:42.539Z,5.993347
2023-01-11T10:28:07.454Z,6.043701
2023-01-11T10:31:32.614Z,6.15448
2023-01-11T10:34:57.803Z,6.184692
2023-01-11T10:38:23.080Z,6.245117
2023-01-11T10:41:48.342Z,6.295471
2023-01-11T10:45:13.609Z,6.335754
2023-01-11T10:48:38.809Z,6.40625
2023-01-11T10:52:04.051Z,6.40625
2023-01-11T10:55:29.279Z,6.426392
2023-01-11T10:58:54.542Z,6.355896
2023-01-11T11:02:21.394Z,6.305542
2023-01-11T11:05:45.042Z,6.305542
2023-01-11T11:09:10.281Z,6.295471
2023-01-11T11:12:35.517Z,6.214905
2023-01-11T11:16:00.863Z,6.214905
2023-01-11T11:19:26.081Z,6.245117
2023-01-11T11:22:51.299Z,6.305542
2023-01-11T11:26:16.595Z,6.305542
2023-01-11T11:29:41.846Z,6.335754
2023-01-11T11:33:07.112Z,6.365967
2023-01-11T11:36:32.360Z,6.355896
2023-01-11T11:39:57.568Z,6.325684
2023-01-11T11:43:22.871Z,6.365967
2023-01-11T11:46:48.099Z,6.40625
2023-01-11T11:50:13.357Z,6.517029
2023-01-11T11:53:38.663Z,6.587524
2023-01-11T11:57:03.856Z,6.637878
2023-01-11T12:00:29.122Z,6.698303
2023-01-11T12:03:54.400Z,6.738586
2023-01-11T12:07:19.650Z,6.758728
2023-01-11T12:10:44.931Z,6.879578
2023-01-11T12:14:10.147Z,6.919861
2023-01-11T12:17:35.389Z,6.940002
2023-01-11T12:21:00.664Z,7.03064
2023-01-11T12:24:26.699Z,7.03064
2023-01-11T12:27:51.228Z,7.091064
2023-01-11T12:31:16.521Z,7.060852
2023-01-11T12:34:41.758Z,7.060852
2023-01-11T12:38:07.025Z,7.060852
2023-01-11T12:41:32.315Z,7.091064
2023-01-11T12:44:57.610Z,7.131348
2023-01-11T12:48:22.922Z,7.121277
2023-01-11T12:51:48.236Z,7.131348
2023-01-11T12:55:13.523Z,7.151489
2023-01-11T12:58:38.806Z,7.272339
2023-01-11T13:02:04.152Z,7.272339
2023-01-11T13:05:29.356Z,7.272339
2023-01-11T13:08:54.801Z,7.312622
2023-01-11T13:12:20.145Z,7.252197
2023-01-11T13:15:45.405Z,7.322693
2023-01-11T13:19:10.721Z,7.373047
2023-01-11T13:22:36.009Z,7.342834
2023-01-11T13:26:01.331Z,7.342834
2023-01-11T13:29:26.699Z,7.352905
2023-01-11T13:32:52.075Z,7.373047
2023-01-11T13:36:23.083Z,7.403259
2023-01-11T13:39:42.618Z,7.423401
2023-01-11T13:43:07.933Z,7.393188
2023-01-11T13:46:33.260Z,7.373047
2023-01-11T13:49:58.512Z,7.463684
2023-01-11T13:53:23.853Z,7.483826
2023-01-11T13:56:49.109Z,7.524109
2023-01-11T14:00:14.396Z,7.524109
2023-01-11T14:03:39.757Z,7.53418
2023-01-11T14:07:04.992Z,7.554321
2023-01-11T14:10:30.335Z,7.524109
2023-01-11T14:13:55.603Z,7.524109
2023-01-11T14:17:20.907Z,7.554321
2023-01-11T14:20:46.285Z,7.574463
2023-01-11T14:24:11.583Z,7.634888
2023-01-11T14:27:36.937Z,7.644958
2023-01-11T15:06:12.506Z,7.816162
2023-01-11T15:09:37.933Z,7.735596
2023-01-11T15:13:03.205Z,7.745667
2023-01-11T15:16:28.539Z,7.614746
2023-01-11T15:19:53.763Z,7.634888
2023-01-11T15:23:19.126Z,7.644958
2023-01-11T15:26:44.928Z,7.584534
2023-01-11T15:30:10.183Z,7.554321
2023-01-11T15:33:35.565Z,7.604675
2023-01-11T15:37:00.979Z,7.675171
2023-01-11T15:40:26.352Z,7.745667
2023-01-11T15:43:51.654Z,7.816162
2023-01-11T15:47:16.950Z,7.896729
2023-01-11T15:50:43.028Z,7.796021
2023-01-11T15:54:08.403Z,7.826233
2023-01-11T15:57:34.780Z,7.78595
2023-01-11T16:01:00.675Z,7.765808
2023-01-11T16:04:26.035Z,7.816162
2023-01-11T16:07:51.809Z,7.846375
2023-01-11T16:11:17.169Z,7.816162
2023-01-11T16:14:42.567Z,7.826233
2023-01-11T16:18:07.984Z,7.715454
2023-01-11T16:21:33.453Z,7.735596
2023-01-11T16:24:58.775Z,7.705383
2023-01-11T16:28:24.295Z,7.735596
2023-01-11T16:31:51.574Z,7.675171
2023-01-11T16:35:16.832Z,7.584534
2023-01-11T16:38:42.147Z,7.584534
2023-01-11T16:42:07.529Z,7.604675
2023-01-11T16:45:32.948Z,7.554321
2023-01-11T16:48:58.202Z,7.352905
2023-01-11T16:52:23.514Z,7.131348
2023-01-11T16:55:48.865Z,6.990356
2023-01-11T16:59:14.180Z,6.869507
2023-01-11T17:02:39.483Z,6.768799
2023-01-11T17:06:04.987Z,6.708374
2023-01-11T17:09:29.980Z,6.617737
2023-01-11T17:12:55.260Z,6.617737
2023-01-11T17:16:20.667Z,6.547241
2023-01-11T17:19:45.775Z,6.617737
2023-01-11T17:23:11.414Z,6.708374
2023-01-11T17:26:36.557Z,6.668091
2023-01-11T17:30:01.759Z,6.688232
2023-01-11T17:33:27.441Z,6.708374
2023-01-11T17:36:52.697Z,6.758728
2023-01-11T17:40:18.127Z,6.728516
2023-01-11T17:43:43.205Z,6.809082
2023-01-11T17:47:08.472Z,6.708374
2023-01-11T17:50:33.715Z,6.617737
2023-01-11T17:53:59.025Z,6.486816
2023-01-11T17:57:24.262Z,6.506958
2023-01-11T18:00:49.516Z,6.547241
2023-01-11T18:04:14.713Z,6.617737
2023-01-11T18:07:39.991Z,6.557312
2023-01-11T18:11:05.261Z,6.506958
2023-01-11T18:14:30.585Z,6.476746
2023-01-11T18:17:55.771Z,6.436462
2023-01-11T18:21:21.046Z,6.325684
2023-01-11T18:24:46.308Z,6.325684
2023-01-11T18:28:11.589Z,6.194763
2023-01-11T18:31:36.955Z,6.194763
2023-01-11T18:35:02.252Z,6.194763
2023-01-11T18:38:27.531Z,6.214905
2023-01-11T18:41:52.872Z,6.245117
2023-01-11T18:45:18.176Z,6.245117
2023-01-11T18:48:43.566Z,6.224976
2023-01-11T18:52:08.838Z,6.295471
2023-01-11T18:55:34.225Z,6.295471
2023-01-11T18:58:59.513Z,6.325684
2023-01-11T19:02:25.734Z,6.305542
2023-01-11T19:05:51.161Z,6.365967
2023-01-11T19:09:16.459Z,6.305542
2023-01-11T19:12:41.818Z,6.295471
2023-01-11T19:16:07.188Z,6.27533
2023-01-11T19:19:32.448Z,6.265259
2023-01-11T19:22:57.813Z,6.295471
2023-01-11T19:26:23.115Z,6.295471
2023-01-11T19:29:48.428Z,6.27533
2023-01-11T19:33:13.807Z,6.27533
2023-01-11T19:36:39.172Z,6.184692
2023-01-11T19:40:04.677Z,6.144409
2023-01-11T19:43:29.989Z,6.013489
2023-01-11T19:47:09.498Z,5.892639
2023-01-11T19:50:20.728Z,5.912781
2023-01-11T19:53:46.057Z,5.942993
2023-01-11T19:57:11.364Z,5.973206
2023-01-11T20:00:36.685Z,6.003418
2023-01-11T20:04:01.971Z,5.932922
2023-01-11T20:07:27.276Z,5.932922
2023-01-11T20:10:52.619Z,5.90271
2023-01-11T20:14:17.923Z,5.912781
2023-01-11T20:17:43.223Z,5.862427
2023-01-11T20:21:08.498Z,5.932922
2023-01-11T20:24:33.785Z,5.932922
2023-01-11T20:27:59.139Z,5.942993
2023-01-11T20:31:24.529Z,5.862427
2023-01-11T20:34:49.750Z,5.90271
2023-01-11T20:38:15.091Z,5.791931
2023-01-11T20:41:40.404Z,5.852356
2023-01-11T20:45:05.736Z,5.852356
2023-01-11T20:48:31.147Z,5.822144
2023-01-11T20:51:56.381Z,5.791931
2023-01-11T20:55:21.611Z,5.822144
2023-01-11T20:58:46.852Z,5.791931
2023-01-11T21:02:12.093Z,5.852356
2023-01-11T21:05:37.397Z,5.862427
2023-01-11T21:09:02.591Z,5.892639
2023-01-11T21:12:27.847Z,5.892639
2023-01-11T21:15:53.153Z,5.862427
2023-01-11T21:19:18.351Z,5.932922
2023-01-11T21:22:43.638Z,5.90271
2023-01-11T21:26:08.859Z,5.912781
2023-01-11T21:29:34.089Z,5.812073
2023-01-11T21:32:59.350Z,5.65094
2023-01-11T21:36:24.587Z,5.610657
2023-01-11T21:39:49.953Z,5.560303
2023-01-11T21:43:15.074Z,5.610657
2023-01-11T21:46:40.364Z,5.671082
2023-01-11T21:50:05.556Z,5.761719
2023-01-11T21:53:30.792Z,5.832214
2023-01-11T21:56:56.090Z,5.822144
2023-01-11T22:00:21.313Z,5.90271
2023-01-11T22:03:46.633Z,5.973206
2023-01-11T22:07:11.827Z,6.013489
2023-01-11T22:10:37.109Z,6.043701
2023-01-11T22:14:02.377Z,6.083984
2023-01-11T22:17:27.590Z,5.973206
2023-01-11T22:20:52.840Z,6.03363
2023-01-11T22:24:18.094Z,5.963135
2023-01-11T22:27:43.341Z,5.812073
2023-01-11T22:31:08.633Z,5.711365
2023-01-11T22:34:33.825Z,5.671082
2023-01-11T22:37:59.070Z,5.721436
2023-01-11T22:41:24.317Z,5.580444
2023-01-11T22:44:49.555Z,5.65094
2023-01-11T22:48:14.852Z,5.630798
2023-01-11T22:51:40.079Z,5.671082
2023-01-11T22:55:05.324Z,5.721436
2023-01-11T22:58:30.577Z,5.681152
2023-01-11T23:01:55.824Z,5.721436
2023-01-11T23:05:21.110Z,5.751648
2023-01-11T23:08:46.360Z,5.610657
2023-01-11T23:12:11.616Z,5.640869
2023-01-11T23:15:36.835Z,5.53009
2023-01-11T23:19:02.092Z,5.449524
2023-01-11T23:22:27.407Z,5.39917
2023-01-11T23:25:52.605Z,5.489807
2023-01-11T23:29:17.879Z,5.540161
2023-01-11T23:32:43.122Z,5.580444
2023-01-11T23:36:08.399Z,5.681152
2023-01-11T23:39:33.666Z,5.681152
2023-01-11T23:42:58.894Z,5.65094
2023-01-11T23:46:24.187Z,5.65094
2023-01-11T23:49:49.420Z,5.671082
2023-01-11T23:53:14.659Z,5.671082
2023-01-11T23:56:39.944Z,5.751648
